sensor_id;sensor_type;location;lat;lon;timestamp;P1;durP1;ratioP1;P2;durP2;ratioP2
11398;SDS011;5755;48.116;11.608;2023-03-14T00:01:43;0.70;;;0.70;;
11398;SDS011;5755;48.116;11.608;2023-03-14T00:04:32;0.80;;;0.80;;
11398;SDS011;5755;48.116;11.608;2023-03-14T00:06:59;0.90;;;0.88;;
11398;SDS011;5755;48.116;11.608;2023-03-14T00:09:27;1.38;;;1.10;;
11398;SDS011;5755;48.116;11.608;2023-03-14T00:12:00;2.13;;;1.90;;
11398;SDS011;5755;48.116;11.608;2023-03-14T00:14:30;1.10;;;1.00;;
11398;SDS011;5755;48.116;11.608;2023-03-14T00:17:11;1.85;;;1.75;;
11398;SDS011;5755;48.116;11.608;2023-03-14T00:19:38;1.35;;;0.95;;
11398;SDS011;5755;48.116;11.608;2023-03-14T00:22:06;3.67;;;2.75;;
11398;SDS011;5755;48.116;11.608;2023-03-14T00:24:34;2.50;;;2.20;;
11398;SDS011;5755;48.116;11.608;2023-03-14T00:27:02;0.80;;;0.80;;
11398;SDS011;5755;48.116;11.608;2023-03-14T00:29:31;1.20;;;0.90;;
11398;SDS011;5755;48.116;11.608;2023-03-14T00:32:00;1.27;;;1.13;;
11398;SDS011;5755;48.116;11.608;2023-03-14T00:34:28;1.33;;;1.10;;
11398;SDS011;5755;48.116;11.608;2023-03-14T00:36:55;0.82;;;0.80;;
11398;SDS011;5755;48.116;11.608;2023-03-14T00:39:22;1.30;;;1.20;;
11398;SDS011;5755;48.116;11.608;2023-03-14T00:41:49;1.02;;;1.00;;
11398;SDS011;5755;48.116;11.608;2023-03-14T00:44:16;1.45;;;1.20;;
11398;SDS011;5755;48.116;11.608;2023-03-14T00:46:44;0.80;;;0.80;;
11398;SDS011;5755;48.116;11.608;2023-03-14T00:49:11;1.42;;;0.80;;
11398;SDS011;5755;48.116;11.608;2023-03-14T00:51:38;1.10;;;0.93;;
11398;SDS011;5755;48.116;11.608;2023-03-14T00:54:05;1.20;;;0.95;;
11398;SDS011;5755;48.116;11.608;2023-03-14T00:56:32;1.48;;;0.80;;
11398;SDS011;5755;48.116;11.608;2023-03-14T00:58:59;1.85;;;0.70;;
11398;SDS011;5755;48.116;11.608;2023-03-14T01:01:26;2.25;;;0.80;;
11398;SDS011;5755;48.116;11.608;2023-03-14T01:03:55;0.65;;;0.65;;
11398;SDS011;5755;48.116;11.608;2023-03-14T01:06:22;1.02;;;0.70;;
11398;SDS011;5755;48.116;11.608;2023-03-14T01:08:51;0.80;;;0.80;;
11398;SDS011;5755;48.116;11.608;2023-03-14T01:11:19;1.67;;;0.70;;
11398;SDS011;5755;48.116;11.608;2023-03-14T01:13:48;1.17;;;0.82;;
11398;SDS011;5755;48.116;11.608;2023-03-14T01:16:16;3.00;;;0.85;;
11398;SDS011;5755;48.116;11.608;2023-03-14T01:19:02;1.13;;;0.75;;
11398;SDS011;5755;48.116;11.608;2023-03-14T01:21:36;1.80;;;0.80;;
11398;SDS011;5755;48.116;11.608;2023-03-14T01:24:04;2.50;;;0.93;;
11398;SDS011;5755;48.116;11.608;2023-03-14T01:26:36;1.13;;;0.80;;
11398;SDS011;5755;48.116;11.608;2023-03-14T01:29:05;1.35;;;0.88;;
11398;SDS011;5755;48.116;11.608;2023-03-14T01:31:33;1.58;;;0.80;;
11398;SDS011;5755;48.116;11.608;2023-03-14T01:34:03;1.73;;;0.65;;
11398;SDS011;5755;48.116;11.608;2023-03-14T01:36:30;1.08;;;0.80;;
11398;SDS011;5755;48.116;11.608;2023-03-14T01:38:57;2.38;;;0.95;;
11398;SDS011;5755;48.116;11.608;2023-03-14T01:41:24;1.30;;;0.90;;
11398;SDS011;5755;48.116;11.608;2023-03-14T01:43:52;1.60;;;0.95;;
11398;SDS011;5755;48.116;11.608;2023-03-14T01:46:26;2.60;;;0.90;;
11398;SDS011;5755;48.116;11.608;2023-03-14T01:49:00;1.45;;;1.10;;
11398;SDS011;5755;48.116;11.608;2023-03-14T01:51:33;2.42;;;0.93;;
11398;SDS011;5755;48.116;11.608;2023-03-14T01:54:07;2.75;;;1.13;;
11398;SDS011;5755;48.116;11.608;2023-03-14T01:56:38;4.00;;;1.52;;
11398;SDS011;5755;48.116;11.608;2023-03-14T01:59:09;2.80;;;0.90;;
11398;SDS011;5755;48.116;11.608;2023-03-14T02:01:38;3.97;;;1.10;;
11398;SDS011;5755;48.116;11.608;2023-03-14T02:04:10;2.45;;;1.20;;
11398;SDS011;5755;48.116;11.608;2023-03-14T02:06:40;1.80;;;1.00;;
11398;SDS011;5755;48.116;11.608;2023-03-14T02:09:14;2.13;;;0.80;;
11398;SDS011;5755;48.116;11.608;2023-03-14T02:11:41;1.30;;;0.95;;
11398;SDS011;5755;48.116;11.608;2023-03-14T02:14:10;1.10;;;0.80;;
11398;SDS011;5755;48.116;11.608;2023-03-14T02:16:45;1.02;;;0.80;;
11398;SDS011;5755;48.116;11.608;2023-03-14T02:19:14;1.38;;;0.77;;
11398;SDS011;5755;48.116;11.608;2023-03-14T02:21:47;0.70;;;0.70;;
11398;SDS011;5755;48.116;11.608;2023-03-14T02:24:21;1.90;;;0.65;;
11398;SDS011;5755;48.116;11.608;2023-03-14T02:27:10;0.70;;;0.70;;
11398;SDS011;5755;48.116;11.608;2023-03-14T02:29:39;0.60;;;0.60;;
11398;SDS011;5755;48.116;11.608;2023-03-14T02:32:12;1.10;;;0.80;;
11398;SDS011;5755;48.116;11.608;2023-03-14T02:34:40;1.38;;;0.82;;
11398;SDS011;5755;48.116;11.608;2023-03-14T02:37:09;1.05;;;0.75;;
11398;SDS011;5755;48.116;11.608;2023-03-14T02:39:38;1.02;;;0.85;;
11398;SDS011;5755;48.116;11.608;2023-03-14T02:42:11;0.40;;;0.40;;
11398;SDS011;5755;48.116;11.608;2023-03-14T02:44:47;0.80;;;0.57;;
11398;SDS011;5755;48.116;11.608;2023-03-14T02:47:16;0.45;;;0.45;;
11398;SDS011;5755;48.116;11.608;2023-03-14T02:49:45;0.98;;;0.50;;
11398;SDS011;5755;48.116;11.608;2023-03-14T02:52:13;0.60;;;0.60;;
11398;SDS011;5755;48.116;11.608;2023-03-14T02:54:40;0.73;;;0.50;;
11398;SDS011;5755;48.116;11.608;2023-03-14T02:57:07;0.77;;;0.70;;
11398;SDS011;5755;48.116;11.608;2023-03-14T02:59:35;1.65;;;0.70;;
11398;SDS011;5755;48.116;11.608;2023-03-14T03:02:02;1.00;;;0.60;;
11398;SDS011;5755;48.116;11.608;2023-03-14T03:04:29;1.50;;;0.60;;
11398;SDS011;5755;48.116;11.608;2023-03-14T03:06:56;0.50;;;0.50;;
11398;SDS011;5755;48.116;11.608;2023-03-14T03:09:23;1.05;;;0.60;;
11398;SDS011;5755;48.116;11.608;2023-03-14T03:11:49;0.80;;;0.52;;
11398;SDS011;5755;48.116;11.608;2023-03-14T03:14:19;1.02;;;0.73;;
11398;SDS011;5755;48.116;11.608;2023-03-14T03:16:47;0.70;;;0.70;;
11398;SDS011;5755;48.116;11.608;2023-03-14T03:19:14;0.65;;;0.65;;
11398;SDS011;5755;48.116;11.608;2023-03-14T03:21:42;0.63;;;0.63;;
11398;SDS011;5755;48.116;11.608;2023-03-14T03:24:09;0.55;;;0.52;;
11398;SDS011;5755;48.116;11.608;2023-03-14T03:26:36;0.60;;;0.60;;
11398;SDS011;5755;48.116;11.608;2023-03-14T03:29:03;0.50;;;0.50;;
11398;SDS011;5755;48.116;11.608;2023-03-14T03:31:30;0.77;;;0.70;;
11398;SDS011;5755;48.116;11.608;2023-03-14T03:33:59;1.00;;;0.70;;
11398;SDS011;5755;48.116;11.608;2023-03-14T03:36:26;0.50;;;0.50;;
11398;SDS011;5755;48.116;11.608;2023-03-14T03:38:53;0.50;;;0.50;;
11398;SDS011;5755;48.116;11.608;2023-03-14T03:41:20;0.70;;;0.70;;
11398;SDS011;5755;48.116;11.608;2023-03-14T03:43:47;1.23;;;0.57;;
11398;SDS011;5755;48.116;11.608;2023-03-14T03:46:14;1.00;;;0.40;;
11398;SDS011;5755;48.116;11.608;2023-03-14T03:48:40;4.00;;;0.85;;
11398;SDS011;5755;48.116;11.608;2023-03-14T03:51:12;0.60;;;0.60;;
11398;SDS011;5755;48.116;11.608;2023-03-14T03:53:39;0.50;;;0.50;;
11398;SDS011;5755;48.116;11.608;2023-03-14T03:56:07;0.32;;;0.32;;
11398;SDS011;5755;48.116;11.608;2023-03-14T03:58:35;0.55;;;0.40;;
11398;SDS011;5755;48.116;11.608;2023-03-14T04:01:03;0.63;;;0.63;;
11398;SDS011;5755;48.116;11.608;2023-03-14T04:03:32;0.65;;;0.40;;
11398;SDS011;5755;48.116;11.608;2023-03-14T04:05:59;0.80;;;0.70;;
11398;SDS011;5755;48.116;11.608;2023-03-14T04:08:28;0.65;;;0.50;;
11398;SDS011;5755;48.116;11.608;2023-03-14T04:10:55;0.60;;;0.60;;
11398;SDS011;5755;48.116;11.608;2023-03-14T04:13:23;0.40;;;0.40;;
11398;SDS011;5755;48.116;11.608;2023-03-14T04:15:50;0.88;;;0.57;;
11398;SDS011;5755;48.116;11.608;2023-03-14T04:18:17;0.60;;;0.60;;
11398;SDS011;5755;48.116;11.608;2023-03-14T04:20:44;0.50;;;0.50;;
11398;SDS011;5755;48.116;11.608;2023-03-14T04:23:11;0.70;;;0.50;;
11398;SDS011;5755;48.116;11.608;2023-03-14T04:25:39;0.30;;;0.30;;
11398;SDS011;5755;48.116;11.608;2023-03-14T04:28:06;0.88;;;0.57;;
11398;SDS011;5755;48.116;11.608;2023-03-14T04:30:33;0.50;;;0.50;;
11398;SDS011;5755;48.116;11.608;2023-03-14T04:33:01;0.43;;;0.43;;
11398;SDS011;5755;48.116;11.608;2023-03-14T04:35:29;1.20;;;0.50;;
11398;SDS011;5755;48.116;11.608;2023-03-14T04:37:57;0.80;;;0.80;;
11398;SDS011;5755;48.116;11.608;2023-03-14T04:40:24;0.40;;;0.40;;
11398;SDS011;5755;48.116;11.608;2023-03-14T04:42:52;0.47;;;0.47;;
11398;SDS011;5755;48.116;11.608;2023-03-14T04:45:20;0.50;;;0.50;;
11398;SDS011;5755;48.116;11.608;2023-03-14T04:47:46;1.25;;;0.55;;
11398;SDS011;5755;48.116;11.608;2023-03-14T04:50:13;0.40;;;0.40;;
11398;SDS011;5755;48.116;11.608;2023-03-14T04:52:40;0.40;;;0.40;;
11398;SDS011;5755;48.116;11.608;2023-03-14T04:55:08;0.40;;;0.40;;
11398;SDS011;5755;48.116;11.608;2023-03-14T04:57:35;1.90;;;0.50;;
11398;SDS011;5755;48.116;11.608;2023-03-14T05:00:04;0.40;;;0.40;;
11398;SDS011;5755;48.116;11.608;2023-03-14T05:02:32;0.50;;;0.50;;
11398;SDS011;5755;48.116;11.608;2023-03-14T05:04:59;0.80;;;0.60;;
11398;SDS011;5755;48.116;11.608;2023-03-14T05:07:26;0.50;;;0.50;;
11398;SDS011;5755;48.116;11.608;2023-03-14T05:09:53;0.57;;;0.50;;
11398;SDS011;5755;48.116;11.608;2023-03-14T05:12:20;0.85;;;0.60;;
11398;SDS011;5755;48.116;11.608;2023-03-14T05:14:49;0.60;;;0.60;;
11398;SDS011;5755;48.116;11.608;2023-03-14T05:17:17;0.63;;;0.43;;
11398;SDS011;5755;48.116;11.608;2023-03-14T05:19:44;0.32;;;0.32;;
11398;SDS011;5755;48.116;11.608;2023-03-14T05:22:11;0.50;;;0.50;;
11398;SDS011;5755;48.116;11.608;2023-03-14T05:24:38;0.45;;;0.45;;
11398;SDS011;5755;48.116;11.608;2023-03-14T05:27:05;0.70;;;0.70;;
11398;SDS011;5755;48.116;11.608;2023-03-14T05:29:32;0.40;;;0.40;;
11398;SDS011;5755;48.116;11.608;2023-03-14T05:31:59;0.50;;;0.50;;
11398;SDS011;5755;48.116;11.608;2023-03-14T05:34:27;0.60;;;0.60;;
11398;SDS011;5755;48.116;11.608;2023-03-14T05:36:55;0.60;;;0.60;;
11398;SDS011;5755;48.116;11.608;2023-03-14T05:39:22;0.40;;;0.38;;
11398;SDS011;5755;48.116;11.608;2023-03-14T05:41:49;0.70;;;0.70;;
11398;SDS011;5755;48.116;11.608;2023-03-14T05:44:16;0.40;;;0.40;;
11398;SDS011;5755;48.116;11.608;2023-03-14T05:46:43;0.43;;;0.40;;
11398;SDS011;5755;48.116;11.608;2023-03-14T05:49:10;1.45;;;0.50;;
11398;SDS011;5755;48.116;11.608;2023-03-14T05:51:39;1.70;;;0.60;;
11398;SDS011;5755;48.116;11.608;2023-03-14T05:54:06;0.63;;;0.63;;
11398;SDS011;5755;48.116;11.608;2023-03-14T05:56:33;0.88;;;0.63;;
11398;SDS011;5755;48.116;11.608;2023-03-14T05:59:00;0.82;;;0.68;;
11398;SDS011;5755;48.116;11.608;2023-03-14T06:01:31;0.68;;;0.52;;
11398;SDS011;5755;48.116;11.608;2023-03-14T06:03:58;0.63;;;0.50;;
11398;SDS011;5755;48.116;11.608;2023-03-14T06:06:25;0.60;;;0.60;;
11398;SDS011;5755;48.116;11.608;2023-03-14T06:08:56;0.40;;;0.40;;
11398;SDS011;5755;48.116;11.608;2023-03-14T06:11:56;0.90;;;0.82;;
11398;SDS011;5755;48.116;11.608;2023-03-14T06:14:23;0.60;;;0.60;;
11398;SDS011;5755;48.116;11.608;2023-03-14T06:16:50;0.63;;;0.63;;
11398;SDS011;5755;48.116;11.608;2023-03-14T06:19:18;0.70;;;0.70;;
11398;SDS011;5755;48.116;11.608;2023-03-14T06:21:44;1.35;;;0.60;;
11398;SDS011;5755;48.116;11.608;2023-03-14T06:24:14;0.57;;;0.57;;
11398;SDS011;5755;48.116;11.608;2023-03-14T06:26:41;0.80;;;0.80;;
11398;SDS011;5755;48.116;11.608;2023-03-14T06:29:09;0.55;;;0.50;;
11398;SDS011;5755;48.116;11.608;2023-03-14T06:31:39;0.73;;;0.70;;
11398;SDS011;5755;48.116;11.608;2023-03-14T06:34:06;0.90;;;0.80;;
11398;SDS011;5755;48.116;11.608;2023-03-14T06:36:33;1.20;;;0.95;;
11398;SDS011;5755;48.116;11.608;2023-03-14T06:39:00;1.00;;;0.90;;
11398;SDS011;5755;48.116;11.608;2023-03-14T06:41:29;1.42;;;0.98;;
11398;SDS011;5755;48.116;11.608;2023-03-14T06:43:56;1.00;;;0.90;;
11398;SDS011;5755;48.116;11.608;2023-03-14T06:46:23;1.20;;;0.90;;
11398;SDS011;5755;48.116;11.608;2023-03-14T06:48:50;0.80;;;0.80;;
11398;SDS011;5755;48.116;11.608;2023-03-14T06:51:18;0.70;;;0.70;;
11398;SDS011;5755;48.116;11.608;2023-03-14T06:53:45;0.80;;;0.60;;
11398;SDS011;5755;48.116;11.608;2023-03-14T06:56:13;0.77;;;0.70;;
11398;SDS011;5755;48.116;11.608;2023-03-14T06:58:42;0.57;;;0.57;;
11398;SDS011;5755;48.116;11.608;2023-03-14T07:01:14;2.40;;;1.08;;
11398;SDS011;5755;48.116;11.608;2023-03-14T07:03:49;1.05;;;0.60;;
11398;SDS011;5755;48.116;11.608;2023-03-14T07:09:44;1.15;;;0.60;;
11398;SDS011;5755;48.116;11.608;2023-03-14T07:12:49;0.60;;;0.60;;
11398;SDS011;5755;48.116;11.608;2023-03-14T07:15:32;2.42;;;0.60;;
11398;SDS011;5755;48.116;11.608;2023-03-14T07:18:13;1.33;;;0.88;;
11398;SDS011;5755;48.116;11.608;2023-03-14T07:21:03;0.80;;;0.80;;
11398;SDS011;5755;48.116;11.608;2023-03-14T07:23:48;1.42;;;0.93;;
11398;SDS011;5755;48.116;11.608;2023-03-14T07:26:16;1.65;;;0.80;;
11398;SDS011;5755;48.116;11.608;2023-03-14T07:28:57;1.15;;;0.80;;
11398;SDS011;5755;48.116;11.608;2023-03-14T07:35:46;1.15;;;0.70;;
11398;SDS011;5755;48.116;11.608;2023-03-14T07:38:30;1.33;;;0.57;;
11398;SDS011;5755;48.116;11.608;2023-03-14T07:40:59;0.45;;;0.45;;
11398;SDS011;5755;48.116;11.608;2023-03-14T07:47:01;2.83;;;1.00;;
11398;SDS011;5755;48.116;11.608;2023-03-14T08:03:36;1.70;;;0.90;;
11398;SDS011;5755;48.116;11.608;2023-03-14T08:17:03;1.70;;;0.68;;
11398;SDS011;5755;48.116;11.608;2023-03-14T08:26:56;0.98;;;0.80;;
11398;SDS011;5755;48.116;11.608;2023-03-14T08:30:20;0.70;;;0.70;;
11398;SDS011;5755;48.116;11.608;2023-03-14T08:33:03;0.82;;;0.82;;
11398;SDS011;5755;48.116;11.608;2023-03-14T08:39:15;0.85;;;0.70;;
11398;SDS011;5755;48.116;11.608;2023-03-14T09:23:35;1.08;;;0.90;;
11398;SDS011;5755;48.116;11.608;2023-03-14T09:26:16;3.75;;;0.75;;
11398;SDS011;5755;48.116;11.608;2023-03-14T09:28:44;1.15;;;0.82;;
11398;SDS011;5755;48.116;11.608;2023-03-14T09:31:12;2.22;;;1.00;;
11398;SDS011;5755;48.116;11.608;2023-03-14T09:33:41;1.02;;;0.77;;
11398;SDS011;5755;48.116;11.608;2023-03-14T09:36:23;1.20;;;0.90;;
11398;SDS011;5755;48.116;11.608;2023-03-14T09:39:09;1.92;;;1.00;;
11398;SDS011;5755;48.116;11.608;2023-03-14T09:41:50;2.08;;;1.23;;
11398;SDS011;5755;48.116;11.608;2023-03-14T09:45:11;2.35;;;1.23;;
11398;SDS011;5755;48.116;11.608;2023-03-14T09:47:41;4.68;;;1.13;;
11398;SDS011;5755;48.116;11.608;2023-03-14T09:50:23;1.35;;;0.85;;
11398;SDS011;5755;48.116;11.608;2023-03-14T09:53:32;2.15;;;0.80;;
11398;SDS011;5755;48.116;11.608;2023-03-14T09:56:21;2.47;;;0.70;;
11398;SDS011;5755;48.116;11.608;2023-03-14T09:59:28;0.70;;;0.68;;
11398;SDS011;5755;48.116;11.608;2023-03-14T10:01:58;2.47;;;0.77;;
11398;SDS011;5755;48.116;11.608;2023-03-14T10:05:00;2.45;;;0.80;;
11398;SDS011;5755;48.116;11.608;2023-03-14T10:07:41;0.77;;;0.77;;
11398;SDS011;5755;48.116;11.608;2023-03-14T10:27:06;0.70;;;0.70;;
11398;SDS011;5755;48.116;11.608;2023-03-14T10:30:38;0.55;;;0.55;;
11398;SDS011;5755;48.116;11.608;2023-03-14T10:33:27;0.93;;;0.60;;
11398;SDS011;5755;48.116;11.608;2023-03-14T10:36:17;1.60;;;0.60;;
11398;SDS011;5755;48.116;11.608;2023-03-14T10:39:37;1.15;;;1.00;;
11398;SDS011;5755;48.116;11.608;2023-03-14T10:42:14;0.80;;;0.80;;
11398;SDS011;5755;48.116;11.608;2023-03-14T10:44:59;1.45;;;0.82;;
11398;SDS011;5755;48.116;11.608;2023-03-14T10:47:47;0.70;;;0.70;;
11398;SDS011;5755;48.116;11.608;2023-03-14T10:50:29;4.28;;;0.80;;
11398;SDS011;5755;48.116;11.608;2023-03-14T10:53:11;2.08;;;0.60;;
11398;SDS011;5755;48.116;11.608;2023-03-14T10:56:21;1.02;;;0.70;;
11398;SDS011;5755;48.116;11.608;2023-03-14T10:59:11;0.82;;;0.82;;
11398;SDS011;5755;48.116;11.608;2023-03-14T11:05:25;0.45;;;0.45;;
11398;SDS011;5755;48.116;11.608;2023-03-14T11:11:09;0.65;;;0.60;;
11398;SDS011;5755;48.116;11.608;2023-03-14T13:41:11;2.03;;;0.63;;
11398;SDS011;5755;48.116;11.608;2023-03-14T13:43:58;0.85;;;0.50;;
11398;SDS011;5755;48.116;11.608;2023-03-14T13:46:29;1.45;;;0.73;;
11398;SDS011;5755;48.116;11.608;2023-03-14T13:49:01;0.52;;;0.52;;
11398;SDS011;5755;48.116;11.608;2023-03-14T13:51:46;0.40;;;0.40;;
11398;SDS011;5755;48.116;11.608;2023-03-14T13:54:55;1.75;;;0.50;;
11398;SDS011;5755;48.116;11.608;2023-03-14T13:57:46;2.20;;;0.55;;
11398;SDS011;5755;48.116;11.608;2023-03-14T14:00:35;2.90;;;0.50;;
11398;SDS011;5755;48.116;11.608;2023-03-14T14:03:02;0.40;;;0.32;;
11398;SDS011;5755;48.116;11.608;2023-03-14T14:11:01;0.43;;;0.43;;
11398;SDS011;5755;48.116;11.608;2023-03-14T14:14:08;0.50;;;0.50;;
11398;SDS011;5755;48.116;11.608;2023-03-14T14:16:58;1.40;;;0.88;;
11398;SDS011;5755;48.116;11.608;2023-03-14T14:19:58;1.02;;;0.60;;
11398;SDS011;5755;48.116;11.608;2023-03-14T14:22:40;0.60;;;0.60;;
11398;SDS011;5755;48.116;11.608;2023-03-14T14:44:59;1.38;;;0.52;;
11398;SDS011;5755;48.116;11.608;2023-03-14T14:48:05;0.52;;;0.52;;
11398;SDS011;5755;48.116;11.608;2023-03-14T14:51:10;1.08;;;0.35;;
11398;SDS011;5755;48.116;11.608;2023-03-14T14:54:13;0.95;;;0.50;;
11398;SDS011;5755;48.116;11.608;2023-03-14T14:57:19;0.60;;;0.60;;
11398;SDS011;5755;48.116;11.608;2023-03-14T15:00:26;0.85;;;0.50;;
11398;SDS011;5755;48.116;11.608;2023-03-14T15:03:14;1.88;;;0.60;;
11398;SDS011;5755;48.116;11.608;2023-03-14T15:06:07;0.77;;;0.70;;
11398;SDS011;5755;48.116;11.608;2023-03-14T15:09:12;0.52;;;0.52;;
11398;SDS011;5755;48.116;11.608;2023-03-14T15:11:54;0.47;;;0.47;;
11398;SDS011;5755;48.116;11.608;2023-03-14T15:14:59;0.70;;;0.60;;
11398;SDS011;5755;48.116;11.608;2023-03-14T15:40:28;0.80;;;0.80;;
11398;SDS011;5755;48.116;11.608;2023-03-14T15:43:17;0.55;;;0.55;;
11398;SDS011;5755;48.116;11.608;2023-03-14T15:45:58;0.60;;;0.60;;
11398;SDS011;5755;48.116;11.608;2023-03-14T15:48:25;0.55;;;0.55;;
11398;SDS011;5755;48.116;11.608;2023-03-14T15:51:05;0.80;;;0.80;;
11398;SDS011;5755;48.116;11.608;2023-03-14T15:53:47;0.80;;;0.80;;
11398;SDS011;5755;48.116;11.608;2023-03-14T15:56:30;0.82;;;0.80;;
11398;SDS011;5755;48.116;11.608;2023-03-14T15:58:57;1.53;;;0.80;;
11398;SDS011;5755;48.116;11.608;2023-03-14T16:01:24;2.13;;;0.77;;
11398;SDS011;5755;48.116;11.608;2023-03-14T16:03:51;1.63;;;1.00;;
11398;SDS011;5755;48.116;11.608;2023-03-14T16:06:33;1.07;;;0.93;;
11398;SDS011;5755;48.116;11.608;2023-03-14T16:09:21;2.20;;;1.20;;
11398;SDS011;5755;48.116;11.608;2023-03-14T16:11:51;2.00;;;0.90;;
11398;SDS011;5755;48.116;11.608;2023-03-14T16:14:32;1.30;;;0.90;;
11398;SDS011;5755;48.116;11.608;2023-03-14T16:16:59;2.17;;;1.20;;
11398;SDS011;5755;48.116;11.608;2023-03-14T16:19:25;0.90;;;0.90;;
11398;SDS011;5755;48.116;11.608;2023-03-14T16:24:32;2.47;;;1.00;;
11398;SDS011;5755;48.116;11.608;2023-03-14T16:27:00;1.53;;;0.90;;
11398;SDS011;5755;48.116;11.608;2023-03-14T16:29:41;1.30;;;1.20;;
11398;SDS011;5755;48.116;11.608;2023-03-14T16:37:19;2.80;;;0.82;;
11398;SDS011;5755;48.116;11.608;2023-03-14T16:40:18;4.23;;;0.93;;
11398;SDS011;5755;48.116;11.608;2023-03-14T16:48:34;1.00;;;0.90;;
11398;SDS011;5755;48.116;11.608;2023-03-14T16:51:31;0.90;;;0.90;;
11398;SDS011;5755;48.116;11.608;2023-03-14T17:13:44;1.37;;;0.87;;
11398;SDS011;5755;48.116;11.608;2023-03-14T17:16:11;1.20;;;1.00;;
11398;SDS011;5755;48.116;11.608;2023-03-14T17:18:38;2.23;;;0.90;;
11398;SDS011;5755;48.116;11.608;2023-03-14T17:21:05;2.67;;;1.20;;
11398;SDS011;5755;48.116;11.608;2023-03-14T17:23:33;1.00;;;0.90;;
11398;SDS011;5755;48.116;11.608;2023-03-14T17:26:00;1.97;;;1.00;;
11398;SDS011;5755;48.116;11.608;2023-03-14T17:28:28;3.50;;;0.98;;
11398;SDS011;5755;48.116;11.608;2023-03-14T17:31:05;1.33;;;0.90;;
11398;SDS011;5755;48.116;11.608;2023-03-14T17:33:36;1.20;;;1.00;;
11398;SDS011;5755;48.116;11.608;2023-03-14T17:36:18;1.23;;;0.90;;
11398;SDS011;5755;48.116;11.608;2023-03-14T17:38:55;1.23;;;0.90;;
11398;SDS011;5755;48.116;11.608;2023-03-14T17:41:48;3.00;;;0.97;;
11398;SDS011;5755;48.116;11.608;2023-03-14T17:44:22;2.47;;;1.20;;
11398;SDS011;5755;48.116;11.608;2023-03-14T17:56:14;2.27;;;1.53;;
11398;SDS011;5755;48.116;11.608;2023-03-14T17:58:55;2.88;;;1.40;;
11398;SDS011;5755;48.116;11.608;2023-03-14T18:01:22;2.47;;;1.17;;
11398;SDS011;5755;48.116;11.608;2023-03-14T18:03:49;3.57;;;1.23;;
11398;SDS011;5755;48.116;11.608;2023-03-14T18:06:21;1.30;;;1.10;;
11398;SDS011;5755;48.116;11.608;2023-03-14T18:08:54;2.40;;;1.30;;
11398;SDS011;5755;48.116;11.608;2023-03-14T18:11:23;3.53;;;1.30;;
11398;SDS011;5755;48.116;11.608;2023-03-14T18:13:50;2.30;;;1.83;;
11398;SDS011;5755;48.116;11.608;2023-03-14T18:16:32;2.43;;;1.67;;
11398;SDS011;5755;48.116;11.608;2023-03-14T18:19:14;2.10;;;1.17;;
11398;SDS011;5755;48.116;11.608;2023-03-14T18:21:56;1.73;;;1.27;;
11398;SDS011;5755;48.116;11.608;2023-03-14T18:24:23;1.67;;;1.20;;
11398;SDS011;5755;48.116;11.608;2023-03-14T18:27:05;1.23;;;1.13;;
11398;SDS011;5755;48.116;11.608;2023-03-14T18:29:46;2.83;;;1.53;;
11398;SDS011;5755;48.116;11.608;2023-03-14T18:32:15;1.43;;;1.07;;
11398;SDS011;5755;48.116;11.608;2023-03-14T18:34:56;1.93;;;1.20;;
11398;SDS011;5755;48.116;11.608;2023-03-14T18:37:38;2.70;;;1.40;;
11398;SDS011;5755;48.116;11.608;2023-03-14T18:40:06;2.38;;;1.20;;
11398;SDS011;5755;48.116;11.608;2023-03-14T18:42:56;2.17;;;1.20;;
11398;SDS011;5755;48.116;11.608;2023-03-14T18:45:37;1.70;;;1.10;;
11398;SDS011;5755;48.116;11.608;2023-03-14T18:48:05;1.53;;;1.03;;
11398;SDS011;5755;48.116;11.608;2023-03-14T18:50:49;4.03;;;1.50;;
11398;SDS011;5755;48.116;11.608;2023-03-14T18:53:54;2.33;;;1.42;;
11398;SDS011;5755;48.116;11.608;2023-03-14T18:56:36;1.73;;;1.50;;
11398;SDS011;5755;48.116;11.608;2023-03-14T18:59:19;3.60;;;1.60;;
11398;SDS011;5755;48.116;11.608;2023-03-14T19:02:11;2.87;;;1.90;;
11398;SDS011;5755;48.116;11.608;2023-03-14T19:04:38;2.77;;;1.67;;
11398;SDS011;5755;48.116;11.608;2023-03-14T19:07:05;4.73;;;1.90;;
11398;SDS011;5755;48.116;11.608;2023-03-14T19:09:32;3.15;;;1.60;;
11398;SDS011;5755;48.116;11.608;2023-03-14T19:12:13;3.43;;;1.50;;
11398;SDS011;5755;48.116;11.608;2023-03-14T19:15:02;2.97;;;1.80;;
11398;SDS011;5755;48.116;11.608;2023-03-14T19:18:06;2.97;;;2.00;;
11398;SDS011;5755;48.116;11.608;2023-03-14T19:20:34;3.70;;;1.50;;
11398;SDS011;5755;48.116;11.608;2023-03-14T19:23:01;1.47;;;1.00;;
11398;SDS011;5755;48.116;11.608;2023-03-14T19:25:28;5.47;;;1.57;;
11398;SDS011;5755;48.116;11.608;2023-03-14T19:27:56;2.33;;;1.63;;
11398;SDS011;5755;48.116;11.608;2023-03-14T19:30:25;1.88;;;1.08;;
11398;SDS011;5755;48.116;11.608;2023-03-14T19:33:13;2.33;;;1.30;;
11398;SDS011;5755;48.116;11.608;2023-03-14T19:35:41;2.15;;;1.10;;
11398;SDS011;5755;48.116;11.608;2023-03-14T19:38:09;4.60;;;1.70;;
11398;SDS011;5755;48.116;11.608;2023-03-14T19:40:52;2.70;;;1.40;;
11398;SDS011;5755;48.116;11.608;2023-03-14T19:43:35;1.13;;;1.00;;
11398;SDS011;5755;48.116;11.608;2023-03-14T19:46:04;1.80;;;1.33;;
11398;SDS011;5755;48.116;11.608;2023-03-14T19:48:46;3.37;;;1.40;;
11398;SDS011;5755;48.116;11.608;2023-03-14T19:51:14;3.33;;;1.50;;
11398;SDS011;5755;48.116;11.608;2023-03-14T19:53:42;2.00;;;1.30;;
11398;SDS011;5755;48.116;11.608;2023-03-14T19:56:42;5.40;;;1.67;;
11398;SDS011;5755;48.116;11.608;2023-03-14T19:59:29;2.47;;;1.63;;
11398;SDS011;5755;48.116;11.608;2023-03-14T20:02:11;2.70;;;1.70;;
11398;SDS011;5755;48.116;11.608;2023-03-14T20:04:54;3.60;;;2.00;;
11398;SDS011;5755;48.116;11.608;2023-03-14T20:07:34;2.72;;;1.60;;
11398;SDS011;5755;48.116;11.608;2023-03-14T20:10:02;4.47;;;1.52;;
11398;SDS011;5755;48.116;11.608;2023-03-14T20:12:29;5.75;;;1.52;;
11398;SDS011;5755;48.116;11.608;2023-03-14T20:15:10;2.90;;;1.60;;
11398;SDS011;5755;48.116;11.608;2023-03-14T20:18:00;3.33;;;1.60;;
11398;SDS011;5755;48.116;11.608;2023-03-14T20:20:41;2.45;;;1.60;;
11398;SDS011;5755;48.116;11.608;2023-03-14T20:23:08;2.30;;;1.35;;
11398;SDS011;5755;48.116;11.608;2023-03-14T20:25:36;3.78;;;1.60;;
11398;SDS011;5755;48.116;11.608;2023-03-14T20:28:04;3.58;;;1.73;;
11398;SDS011;5755;48.116;11.608;2023-03-14T20:30:31;1.98;;;1.58;;
11398;SDS011;5755;48.116;11.608;2023-03-14T20:33:00;3.67;;;1.90;;
11398;SDS011;5755;48.116;11.608;2023-03-14T20:35:41;4.32;;;1.90;;
11398;SDS011;5755;48.116;11.608;2023-03-14T20:38:23;3.47;;;1.70;;
11398;SDS011;5755;48.116;11.608;2023-03-14T20:40:51;6.07;;;2.00;;
11398;SDS011;5755;48.116;11.608;2023-03-14T20:43:18;7.65;;;2.00;;
11398;SDS011;5755;48.116;11.608;2023-03-14T20:45:50;3.75;;;1.60;;
11398;SDS011;5755;48.116;11.608;2023-03-14T20:48:20;3.67;;;1.73;;
11398;SDS011;5755;48.116;11.608;2023-03-14T20:50:56;3.45;;;1.73;;
11398;SDS011;5755;48.116;11.608;2023-03-14T20:53:24;3.63;;;1.60;;
11398;SDS011;5755;48.116;11.608;2023-03-14T20:55:52;2.83;;;1.40;;
11398;SDS011;5755;48.116;11.608;2023-03-14T20:58:21;3.00;;;1.73;;
11398;SDS011;5755;48.116;11.608;2023-03-14T21:00:48;2.77;;;1.50;;
11398;SDS011;5755;48.116;11.608;2023-03-14T21:03:18;1.23;;;1.10;;
11398;SDS011;5755;48.116;11.608;2023-03-14T21:05:47;1.83;;;1.60;;
11398;SDS011;5755;48.116;11.608;2023-03-14T21:08:14;2.07;;;1.50;;
11398;SDS011;5755;48.116;11.608;2023-03-14T21:10:44;2.23;;;1.43;;
11398;SDS011;5755;48.116;11.608;2023-03-14T21:13:12;2.77;;;1.50;;
11398;SDS011;5755;48.116;11.608;2023-03-14T21:15:41;3.10;;;1.57;;
11398;SDS011;5755;48.116;11.608;2023-03-14T21:18:08;1.73;;;1.53;;
11398;SDS011;5755;48.116;11.608;2023-03-14T21:20:37;3.37;;;1.40;;
11398;SDS011;5755;48.116;11.608;2023-03-14T21:23:05;2.47;;;1.50;;